Terminal Aerodrome Forecast
Issued by NWS

Home | Current Version | Previous Version | Text Only | Print | Product List | Glossary On
Versions: 1 2 3 4 5 6 7 8 9 10 11 12
000
FTUS45 KRIW 192320
TAFBPI
TAF
KBPI 192320Z 2000/2024 32011KT P6SM FEW080 SCT250
     FM200200 35007KT P6SM FEW110 SCT200
     FM202000 30015G25KT P6SM VCTS SCT080CB BKN120=

USA.gov is the U.S. government's official web portal to all federal, state and local government web resources and services.